createdAt,value
2017-09-22T00:00:01.684Z,99.99
2017-09-22T00:01:10.527Z,99.99
2017-09-22T00:02:19.369Z,99.99
2017-09-22T00:03:28.312Z,99.99
2017-09-22T00:04:37.154Z,99.99
2017-09-22T00:05:45.998Z,99.99
2017-09-22T00:06:54.938Z,99.99
2017-09-22T00:08:03.782Z,99.99
2017-09-22T00:09:12.824Z,99.99
2017-09-22T00:10:21.666Z,99.99
2017-09-22T00:11:30.506Z,99.99
2017-09-22T00:12:39.346Z,99.99
2017-09-22T00:13:48.190Z,99.99
2017-09-22T00:14:57.227Z,99.99
2017-09-22T00:16:06.070Z,99.99
2017-09-22T00:17:14.913Z,99.99
2017-09-22T00:18:23.756Z,99.99
2017-09-22T00:19:32.598Z,99.99
2017-09-22T00:20:41.638Z,99.99
2017-09-22T00:21:50.482Z,99.99
2017-09-22T00:22:59.323Z,99.99
2017-09-22T00:24:08.172Z,99.99
2017-09-22T00:25:17.013Z,99.99
2017-09-22T00:26:26.005Z,99.99
2017-09-22T00:27:35.182Z,99.99
2017-09-22T00:28:44.026Z,99.99
2017-09-22T00:29:52.867Z,99.99
2017-09-22T00:31:01.710Z,99.99
2017-09-22T00:32:10.934Z,99.99
2017-09-22T00:33:20.572Z,99.99
2017-09-22T00:34:29.415Z,99.99
2017-09-22T00:35:38.259Z,99.99
2017-09-22T00:36:47.101Z,99.99
2017-09-22T00:37:55.990Z,99.99
2017-09-22T00:39:04.831Z,99.99
2017-09-22T00:40:13.674Z,99.99
2017-09-22T00:41:22.517Z,99.99
2017-09-22T00:42:31.356Z,99.99
2017-09-22T00:43:40.354Z,99.99
2017-09-22T00:44:49.195Z,99.99
2017-09-22T00:45:58.039Z,99.99
2017-09-22T00:47:06.876Z,99.99
2017-09-22T00:48:15.718Z,99.99
2017-09-22T00:49:24.711Z,99.99
2017-09-22T00:50:33.549Z,99.99
2017-09-22T00:51:42.394Z,99.99
2017-09-22T00:52:51.565Z,99.99
2017-09-22T00:54:00.408Z,99.99
2017-09-22T00:55:09.246Z,99.99
2017-09-22T00:56:18.086Z,99.99
2017-09-22T00:57:26.927Z,99.99
2017-09-22T00:58:36.097Z,99.99
2017-09-22T00:59:44.938Z,99.99
2017-09-22T01:00:54.080Z,99.99
2017-09-22T01:02:02.920Z,99.99
2017-09-22T01:03:11.761Z,99.99
2017-09-22T01:04:20.604Z,99.99
2017-09-22T01:05:29.785Z,99.99
2017-09-22T01:06:38.929Z,99.99
2017-09-22T01:07:47.770Z,99.99
2017-09-22T01:08:56.612Z,99.99
2017-09-22T01:10:05.451Z,99.99
2017-09-22T01:11:14.291Z,99.99
2017-09-22T01:12:23.132Z,99.99
2017-09-22T01:13:31.976Z,99.99
2017-09-22T01:14:40.818Z,99.99
2017-09-22T01:15:49.657Z,99.99
2017-09-22T01:16:58.496Z,99.99
2017-09-22T01:18:07.736Z,99.99
2017-09-22T01:19:16.578Z,99.99
2017-09-22T01:20:25.423Z,99.99
2017-09-22T01:21:34.594Z,99.99
2017-09-22T01:22:43.435Z,99.99
2017-09-22T01:23:52.375Z,99.99
2017-09-22T01:25:01.214Z,99.99
2017-09-22T01:26:10.053Z,99.99
2017-09-22T01:27:18.893Z,99.99
2017-09-22T01:28:28.067Z,99.99
2017-09-22T01:29:36.959Z,99.99
2017-09-22T01:30:45.801Z,99.99
2017-09-22T01:31:54.979Z,99.99
2017-09-22T01:33:03.819Z,99.99
2017-09-22T01:34:12.989Z,99.99
2017-09-22T01:35:21.932Z,99.99
2017-09-22T01:36:30.773Z,99.99
2017-09-22T01:37:39.615Z,99.99
2017-09-22T01:38:48.457Z,99.99
2017-09-22T01:39:57.297Z,99.99
2017-09-22T01:41:06.440Z,99.99
2017-09-22T01:42:15.313Z,99.99
2017-09-22T01:43:24.119Z,99.99
2017-09-22T01:44:32.959Z,99.99
2017-09-22T01:45:41.800Z,99.99
2017-09-22T01:46:50.789Z,99.99
2017-09-22T01:47:59.630Z,99.99
2017-09-22T01:49:08.470Z,99.99
2017-09-22T01:50:17.309Z,99.99
2017-09-22T01:51:26.155Z,99.99
2017-09-22T01:52:35.577Z,99.99
2017-09-22T01:53:44.417Z,99.99
2017-09-22T01:54:53.261Z,99.99
2017-09-22T01:56:02.101Z,99.99
2017-09-22T01:57:10.944Z,99.99
2017-09-22T01:58:19.934Z,99.99
2017-09-22T01:59:28.775Z,99.99
2017-09-22T02:00:37.617Z,99.99
2017-09-22T02:01:46.460Z,99.99
2017-09-22T02:02:55.302Z,99.99
2017-09-22T02:04:04.776Z,99.99
2017-09-22T02:05:13.615Z,99.99
2017-09-22T02:06:22.454Z,99.99
2017-09-22T02:07:31.296Z,99.99
2017-09-22T02:08:40.137Z,99.99
2017-09-22T02:09:49.029Z,99.99
2017-09-22T02:10:58.203Z,99.99
2017-09-22T02:12:07.048Z,99.99
2017-09-22T02:13:15.889Z,99.99
2017-09-22T02:14:24.732Z,99.99
2017-09-22T02:15:33.775Z,99.99
2017-09-22T02:16:42.717Z,99.99
2017-09-22T02:17:51.560Z,99.99
2017-09-22T02:19:00.402Z,99.99
2017-09-22T02:20:09.244Z,99.99
2017-09-22T02:21:18.084Z,99.99
2017-09-22T02:22:26.925Z,99.99
2017-09-22T02:23:35.768Z,99.99
2017-09-22T02:24:44.613Z,99.99
2017-09-22T02:25:53.454Z,99.99
2017-09-22T02:27:02.549Z,99.99
2017-09-22T02:28:11.395Z,99.99
2017-09-22T02:29:20.564Z,99.99
2017-09-22T02:30:29.408Z,99.99
2017-09-22T02:31:38.253Z,99.99
2017-09-22T02:32:47.094Z,99.99
2017-09-22T02:33:55.936Z,99.99
2017-09-22T02:35:04.778Z,99.99
2017-09-22T02:36:13.961Z,99.99
2017-09-22T02:37:22.803Z,99.99
2017-09-22T02:38:31.845Z,99.99
2017-09-22T02:39:40.688Z,99.99
2017-09-22T02:40:49.530Z,99.99
2017-09-22T02:41:58.372Z,99.99
2017-09-22T02:43:07.217Z,99.99
2017-09-22T02:44:16.546Z,99.99
2017-09-22T02:45:25.385Z,99.99
2017-09-22T02:46:34.228Z,99.99
2017-09-22T02:47:43.069Z,99.99
2017-09-22T02:48:51.909Z,99.99
2017-09-22T02:50:00.952Z,99.99
2017-09-22T02:51:09.793Z,99.99
2017-09-22T02:52:18.634Z,99.99
2017-09-22T02:53:27.475Z,99.99
2017-09-22T02:54:36.315Z,99.99
2017-09-22T02:55:45.460Z,99.99
2017-09-22T02:56:54.302Z,99.99
2017-09-22T02:58:03.147Z,99.99
2017-09-22T02:59:11.986Z,99.99
2017-09-22T03:00:20.831Z,99.99
2017-09-22T03:01:29.972Z,99.99
2017-09-22T03:02:39.145Z,99.99
2017-09-22T03:03:47.986Z,99.99
2017-09-22T03:04:56.828Z,99.99
2017-09-22T03:06:05.665Z,99.99
2017-09-22T03:07:14.557Z,99.99
2017-09-22T03:08:23.397Z,99.99
2017-09-22T03:09:32.237Z,99.99
2017-09-22T03:10:41.080Z,99.99
2017-09-22T03:11:49.921Z,99.99
2017-09-22T03:12:58.913Z,99.99
2017-09-22T03:14:07.754Z,99.99
2017-09-22T03:15:16.596Z,99.99
2017-09-22T03:16:25.436Z,99.99
2017-09-22T03:17:34.275Z,99.99
2017-09-22T03:18:43.169Z,99.99
2017-09-22T03:19:52.005Z,99.99
2017-09-22T03:21:00.845Z,99.99
2017-09-22T03:22:09.686Z,99.99
2017-09-22T03:23:18.526Z,99.99
2017-09-22T03:24:27.420Z,99.99
2017-09-22T03:25:36.261Z,99.99
2017-09-22T03:26:45.103Z,99.99
2017-09-22T03:27:53.942Z,99.99
2017-09-22T03:29:02.785Z,99.99
2017-09-22T03:30:11.927Z,99.99
2017-09-22T03:31:20.766Z,99.99
2017-09-22T03:32:29.608Z,99.99
2017-09-22T03:33:38.448Z,99.99
2017-09-22T03:34:47.290Z,99.99
2017-09-22T03:35:56.532Z,99.99
2017-09-22T03:37:05.373Z,99.99
2017-09-22T03:38:14.215Z,99.99
2017-09-22T03:39:23.080Z,99.99
2017-09-22T03:40:31.897Z,99.99
2017-09-22T03:41:40.890Z,99.99
2017-09-22T03:42:49.732Z,99.99
2017-09-22T03:43:58.575Z,99.99
2017-09-22T03:45:07.418Z,99.99
2017-09-22T03:46:16.261Z,99.99
2017-09-22T03:47:25.202Z,99.99
2017-09-22T03:48:34.043Z,99.99
2017-09-22T03:49:42.887Z,99.99
2017-09-22T03:50:52.065Z,99.99
2017-09-22T03:52:00.905Z,99.99
2017-09-22T03:53:09.902Z,99.99
2017-09-22T03:54:18.744Z,99.99
2017-09-22T03:55:27.587Z,99.99
2017-09-22T03:56:36.424Z,99.99
2017-09-22T03:57:45.264Z,99.99
2017-09-22T03:58:54.358Z,99.99
2017-09-22T04:00:03.198Z,99.99
2017-09-22T04:01:12.035Z,99.99
2017-09-22T04:02:20.876Z,99.99
2017-09-22T04:03:29.718Z,99.99
2017-09-22T04:04:38.710Z,99.99
2017-09-22T04:05:47.550Z,99.99
2017-09-22T04:06:56.390Z,99.99
2017-09-22T04:08:05.230Z,99.99
2017-09-22T04:09:14.070Z,99.99
2017-09-22T04:10:23.544Z,99.99
2017-09-22T04:11:32.382Z,99.99
2017-09-22T04:12:41.226Z,99.99
2017-09-22T04:13:50.406Z,99.99
2017-09-22T04:14:59.577Z,99.99
2017-09-22T04:16:08.566Z,99.99
2017-09-22T04:17:17.407Z,99.99
2017-09-22T04:18:26.247Z,99.99
2017-09-22T04:19:35.088Z,99.99
2017-09-22T04:20:43.929Z,99.99
2017-09-22T04:21:53.158Z,99.99
2017-09-22T04:23:01.997Z,99.99
2017-09-22T04:24:11.170Z,99.99
2017-09-22T04:25:20.011Z,99.99
2017-09-22T04:26:28.852Z,99.99
2017-09-22T04:27:37.951Z,99.99
2017-09-22T04:28:47.121Z,99.99
2017-09-22T04:29:55.961Z,99.99
2017-09-22T04:31:04.804Z,99.99
2017-09-22T04:32:13.643Z,99.99
2017-09-22T04:33:22.635Z,99.99
2017-09-22T04:34:31.478Z,99.99
2017-09-22T04:35:40.315Z,99.99
2017-09-22T04:36:49.156Z,99.99
2017-09-22T04:37:57.999Z,99.99
2017-09-22T04:39:06.941Z,99.99
2017-09-22T04:40:15.781Z,99.99
2017-09-22T04:41:24.624Z,99.99
2017-09-22T04:42:33.465Z,99.99
2017-09-22T04:43:42.302Z,99.99
2017-09-22T04:44:51.245Z,99.99
2017-09-22T04:46:00.086Z,99.99
2017-09-22T04:47:08.925Z,99.99
2017-09-22T04:48:17.764Z,99.99
2017-09-22T04:49:26.604Z,99.99
2017-09-22T04:50:35.591Z,99.99
2017-09-22T04:51:44.431Z,99.99
2017-09-22T04:52:53.274Z,99.99
2017-09-22T04:54:02.112Z,99.99
2017-09-22T04:55:10.954Z,99.99
2017-09-22T04:56:19.896Z,99.99
2017-09-22T04:57:28.740Z,99.99
2017-09-22T04:58:37.577Z,99.99
2017-09-22T04:59:46.419Z,99.99
2017-09-22T05:00:55.261Z,99.99
2017-09-22T05:02:04.255Z,99.99
2017-09-22T05:03:13.100Z,99.99
2017-09-22T05:04:21.947Z,99.99
2017-09-22T05:05:30.785Z,99.99
2017-09-22T05:06:39.637Z,99.99
2017-09-22T05:07:48.812Z,99.99
2017-09-22T05:08:57.656Z,99.99
2017-09-22T05:10:06.501Z,99.99
2017-09-22T05:11:15.344Z,99.99
2017-09-22T05:12:24.187Z,99.99
2017-09-22T05:13:33.128Z,99.99
2017-09-22T05:14:41.972Z,99.99
2017-09-22T05:15:50.814Z,99.99
2017-09-22T05:16:59.660Z,99.99
2017-09-22T05:18:08.505Z,99.99
2017-09-22T05:19:17.547Z,99.99
2017-09-22T05:20:26.393Z,99.99
2017-09-22T05:21:35.239Z,99.99
2017-09-22T05:22:44.084Z,99.99
2017-09-22T05:23:52.929Z,99.99
2017-09-22T05:25:01.774Z,99.99
2017-09-22T05:26:10.615Z,99.99
2017-09-22T05:27:19.457Z,99.99
2017-09-22T05:28:28.299Z,99.99
2017-09-22T05:29:37.142Z,99.99
2017-09-22T05:30:46.235Z,99.99
2017-09-22T05:31:55.080Z,99.99
2017-09-22T05:33:03.922Z,99.99
2017-09-22T05:34:12.766Z,99.99
2017-09-22T05:35:21.938Z,99.99
2017-09-22T05:36:30.930Z,99.99
2017-09-22T05:37:39.775Z,99.99
2017-09-22T05:38:48.620Z,99.99
2017-09-22T05:39:57.463Z,99.99
2017-09-22T05:41:06.307Z,99.99
2017-09-22T05:42:15.449Z,99.99
2017-09-22T05:43:24.294Z,99.99
2017-09-22T05:44:33.137Z,99.99
2017-09-22T05:45:41.977Z,99.99
2017-09-22T05:46:50.823Z,99.99
2017-09-22T05:47:59.963Z,99.99
2017-09-22T05:49:08.809Z,99.99
2017-09-22T05:50:17.654Z,99.99
2017-09-22T05:51:26.498Z,99.99
2017-09-22T05:52:35.344Z,99.99
2017-09-22T05:53:44.188Z,99.99
2017-09-22T05:54:53.031Z,99.99
2017-09-22T05:56:01.877Z,99.99
2017-09-22T05:57:11.050Z,99.99
2017-09-22T05:58:19.895Z,99.99
2017-09-22T05:59:28.889Z,99.99
2017-09-22T06:00:38.064Z,99.99
2017-09-22T06:01:46.909Z,99.99
2017-09-22T06:02:55.757Z,99.99
2017-09-22T06:04:04.599Z,99.99
2017-09-22T06:05:13.542Z,99.99
2017-09-22T06:06:22.386Z,99.99
2017-09-22T06:07:31.557Z,99.99
2017-09-22T06:08:40.403Z,99.99
2017-09-22T06:09:49.241Z,99.99
2017-09-22T06:10:58.333Z,99.99
2017-09-22T06:12:07.180Z,99.99
2017-09-22T06:13:16.026Z,99.99
2017-09-22T06:14:24.872Z,99.99
2017-09-22T06:15:33.715Z,99.99
2017-09-22T06:16:43.042Z,99.99
2017-09-22T06:17:51.882Z,99.99
2017-09-22T06:19:00.725Z,99.99
2017-09-22T06:20:09.567Z,99.99
2017-09-22T06:21:18.408Z,99.99
2017-09-22T06:22:27.301Z,99.99
2017-09-22T06:23:36.145Z,99.99
2017-09-22T06:24:44.986Z,99.99
2017-09-22T06:25:54.159Z,99.99
2017-09-22T06:27:03.003Z,99.99
2017-09-22T06:28:11.895Z,99.99
2017-09-22T06:29:20.738Z,99.99
2017-09-22T06:30:29.578Z,99.99
2017-09-22T06:31:38.421Z,99.99
2017-09-22T06:32:47.263Z,99.99
2017-09-22T06:33:56.105Z,99.99
2017-09-22T06:35:04.954Z,99.99
2017-09-22T06:36:13.793Z,99.99
2017-09-22T06:37:22.965Z,99.99
2017-09-22T06:38:31.807Z,99.99
2017-09-22T06:39:40.801Z,99.99
2017-09-22T06:40:49.976Z,99.99
2017-09-22T06:41:58.818Z,99.99
2017-09-22T06:43:07.996Z,99.99
2017-09-22T06:44:16.837Z,99.99
2017-09-22T06:45:25.679Z,99.99
2017-09-22T06:46:34.524Z,99.99
2017-09-22T06:47:43.364Z,99.99
2017-09-22T06:48:52.206Z,99.99
2017-09-22T06:50:01.384Z,99.99
2017-09-22T06:51:10.324Z,99.99
2017-09-22T06:52:19.167Z,99.99
2017-09-22T06:53:28.009Z,99.99
2017-09-22T06:54:36.851Z,99.99
2017-09-22T06:55:45.696Z,99.99
2017-09-22T06:56:54.589Z,99.99
2017-09-22T06:58:03.430Z,99.99
2017-09-22T06:59:12.274Z,99.99
2017-09-22T07:00:21.115Z,99.99
2017-09-22T07:01:29.958Z,99.99
2017-09-22T07:02:38.898Z,99.99
2017-09-22T07:03:47.741Z,99.99
2017-09-22T07:04:56.583Z,99.99
2017-09-22T07:06:05.427Z,99.99
2017-09-22T07:07:14.277Z,99.99
2017-09-22T07:08:23.270Z,99.99
2017-09-22T07:09:32.112Z,99.99
2017-09-22T07:10:40.959Z,99.99
2017-09-22T07:11:49.797Z,99.99
2017-09-22T07:12:58.640Z,99.99
2017-09-22T07:14:07.876Z,99.99
2017-09-22T07:15:16.720Z,99.99
2017-09-22T07:16:25.565Z,99.99
2017-09-22T07:17:34.407Z,99.99
2017-09-22T07:18:43.250Z,99.99
2017-09-22T07:19:52.394Z,99.99
2017-09-22T07:21:01.237Z,99.99
2017-09-22T07:22:10.081Z,99.99
2017-09-22T07:23:18.927Z,99.99
2017-09-22T07:24:27.768Z,99.99
2017-09-22T07:25:36.912Z,99.99
2017-09-22T07:26:45.755Z,99.99
2017-09-22T07:27:54.602Z,99.99
2017-09-22T07:29:03.446Z,99.99
2017-09-22T07:30:12.289Z,99.99
2017-09-22T07:31:21.183Z,99.99
2017-09-22T07:32:30.026Z,99.99
2017-09-22T07:33:38.869Z,99.99
2017-09-22T07:34:47.713Z,99.99
2017-09-22T07:35:56.553Z,99.99
2017-09-22T07:37:05.596Z,99.99
2017-09-22T07:38:14.440Z,99.99
2017-09-22T07:39:23.281Z,99.99
2017-09-22T07:40:32.123Z,99.99
2017-09-22T07:41:40.964Z,99.99
2017-09-22T07:42:49.960Z,99.99
2017-09-22T07:43:58.803Z,99.99
2017-09-22T07:45:07.649Z,99.99
2017-09-22T07:46:16.494Z,99.99
2017-09-22T07:47:25.337Z,99.99
2017-09-22T07:48:34.330Z,99.99
2017-09-22T07:49:43.178Z,99.99
2017-09-22T07:50:52.021Z,99.99
2017-09-22T07:52:00.867Z,99.99
2017-09-22T07:53:09.712Z,99.99
2017-09-22T07:54:18.764Z,99.99
2017-09-22T07:55:27.603Z,99.99
2017-09-22T07:56:36.445Z,99.99
2017-09-22T07:57:45.292Z,99.99
2017-09-22T07:58:54.133Z,99.99
2017-09-22T08:00:03.079Z,99.99
2017-09-22T08:01:11.924Z,99.99
2017-09-22T08:02:20.770Z,99.99
2017-09-22T08:03:29.614Z,99.99
2017-09-22T08:04:38.794Z,99.99
2017-09-22T08:05:47.737Z,99.99
2017-09-22T08:06:56.582Z,99.99
2017-09-22T08:08:05.426Z,99.99
2017-09-22T08:09:14.272Z,99.99
2017-09-22T08:10:23.113Z,99.99
2017-09-22T08:11:32.008Z,99.99
2017-09-22T08:12:40.851Z,99.99
2017-09-22T08:13:49.696Z,99.99
2017-09-22T08:14:58.543Z,99.99
2017-09-22T08:16:07.716Z,99.99
2017-09-22T08:17:16.661Z,99.99
2017-09-22T08:18:25.506Z,99.99
2017-09-22T08:19:34.351Z,99.99
2017-09-22T08:20:43.198Z,99.99
2017-09-22T08:21:52.044Z,99.99
2017-09-22T08:23:00.938Z,99.99
2017-09-22T08:24:10.113Z,99.99
2017-09-22T08:25:18.991Z,99.99
2017-09-22T08:26:27.803Z,99.99
2017-09-22T08:27:36.648Z,99.99
2017-09-22T08:28:45.792Z,99.99
2017-09-22T08:29:54.636Z,99.99
2017-09-22T08:31:03.481Z,99.99
2017-09-22T08:32:12.324Z,99.99
2017-09-22T08:33:21.169Z,99.99
2017-09-22T08:34:30.264Z,99.99
2017-09-22T08:35:39.112Z,99.99
2017-09-22T08:36:47.970Z,99.99
2017-09-22T08:37:57.149Z,99.99
2017-09-22T08:39:05.994Z,99.99
2017-09-22T08:40:15.039Z,99.99
2017-09-22T08:41:23.884Z,99.99
2017-09-22T08:42:32.730Z,99.99
2017-09-22T08:43:41.574Z,99.99
2017-09-22T08:44:50.617Z,99.99
2017-09-22T08:45:59.616Z,99.99
2017-09-22T08:47:08.461Z,99.99
2017-09-22T08:48:17.312Z,99.99
2017-09-22T08:49:26.164Z,99.99
2017-09-22T08:50:35.001Z,99.99
2017-09-22T08:51:43.898Z,99.99
2017-09-22T08:52:52.745Z,99.99
2017-09-22T08:54:01.589Z,99.99
2017-09-22T08:55:10.433Z,99.99
2017-09-22T08:56:19.278Z,99.99
2017-09-22T08:57:28.563Z,99.99
2017-09-22T08:58:37.412Z,99.99
2017-09-22T08:59:46.258Z,99.99
2017-09-22T09:00:55.106Z,99.99
2017-09-22T09:02:04.283Z,99.99
2017-09-22T09:03:13.130Z,99.99
2017-09-22T09:04:21.977Z,99.99
2017-09-22T09:05:30.826Z,99.99
2017-09-22T09:06:39.672Z,99.99
2017-09-22T09:07:48.517Z,99.99
2017-09-22T09:08:57.414Z,99.99
2017-09-22T09:10:06.261Z,99.99
2017-09-22T09:11:15.106Z,99.99
2017-09-22T09:12:23.951Z,99.99
2017-09-22T09:13:32.798Z,99.99
2017-09-22T09:14:41.845Z,99.99
2017-09-22T09:15:50.691Z,99.99
2017-09-22T09:16:59.537Z,99.99
2017-09-22T09:18:08.386Z,99.99
2017-09-22T09:19:17.234Z,99.99
2017-09-22T09:20:26.232Z,99.99
2017-09-22T09:21:35.079Z,99.99
2017-09-22T09:22:43.937Z,99.99
2017-09-22T09:23:52.782Z,99.99
2017-09-22T09:25:01.629Z,99.99
2017-09-22T09:26:10.579Z,99.99
2017-09-22T09:27:19.426Z,99.99
2017-09-22T09:28:28.272Z,99.99
2017-09-22T09:29:37.118Z,99.99
2017-09-22T09:30:46.296Z,99.99
2017-09-22T09:31:55.344Z,99.99
2017-09-22T09:33:04.190Z,99.99
2017-09-22T09:34:13.038Z,99.99
2017-09-22T09:35:21.883Z,99.99
2017-09-22T09:36:30.730Z,99.99
2017-09-22T09:37:39.726Z,99.99
2017-09-22T09:38:48.574Z,99.99
2017-09-22T09:39:57.420Z,99.99
2017-09-22T09:41:06.268Z,99.99
2017-09-22T09:42:15.115Z,99.99
2017-09-22T09:43:24.263Z,99.99
2017-09-22T09:44:33.112Z,99.99
2017-09-22T09:45:41.962Z,99.99
2017-09-22T09:46:50.839Z,99.99
2017-09-22T09:47:59.658Z,99.99
2017-09-22T09:49:08.604Z,99.99
2017-09-22T09:50:17.451Z,99.99
2017-09-22T09:51:26.299Z,99.99
2017-09-22T09:52:35.145Z,99.99
2017-09-22T09:53:43.993Z,99.99
2017-09-22T09:54:53.139Z,99.99
2017-09-22T09:56:01.986Z,99.99
2017-09-22T09:57:10.832Z,99.99
2017-09-22T09:58:19.678Z,99.99
2017-09-22T09:59:29.631Z,99.99
2017-09-22T10:00:40.051Z,99.99
2017-09-22T10:01:50.932Z,99.99
2017-09-22T10:03:01.433Z,99.99
2017-09-22T10:04:12.289Z,99.99
2017-09-22T10:05:22.816Z,99.99
2017-09-22T10:06:33.525Z,99.99
2017-09-22T10:07:43.320Z,99.99
2017-09-22T10:08:54.576Z,99.99
2017-09-22T10:10:05.427Z,99.99
2017-09-22T10:11:16.284Z,99.99
2017-09-22T10:12:26.941Z,99.99
2017-09-22T10:13:37.969Z,99.99
2017-09-22T10:14:48.485Z,99.99
2017-09-22T10:15:58.957Z,99.99
2017-09-22T10:17:40.733Z,99.99
2017-09-22T10:18:49.583Z,99.99
2017-09-22T10:19:58.435Z,99.99
2017-09-22T10:21:07.287Z,99.99
2017-09-22T10:22:16.136Z,99.99
2017-09-22T10:23:25.136Z,99.99
2017-09-22T10:24:33.985Z,99.99
2017-09-22T10:25:43.171Z,99.99
2017-09-22T10:26:52.021Z,99.99
2017-09-22T10:28:00.876Z,99.99
2017-09-22T10:29:09.773Z,99.99
2017-09-22T10:30:18.620Z,99.99
2017-09-22T10:31:27.468Z,99.99
2017-09-22T10:32:36.315Z,99.99
2017-09-22T10:33:45.162Z,99.99
2017-09-22T10:34:54.111Z,99.99
2017-09-22T10:36:02.961Z,99.99
2017-09-22T10:37:12.143Z,99.99
2017-09-22T10:38:21.327Z,99.99
2017-09-22T10:39:30.174Z,99.99
2017-09-22T10:40:39.073Z,99.99
2017-09-22T10:41:48.253Z,99.99
2017-09-22T10:42:57.100Z,99.99
2017-09-22T10:44:05.949Z,99.99
2017-09-22T10:45:14.798Z,99.99
2017-09-22T10:46:23.693Z,99.99
2017-09-22T10:47:32.543Z,99.99
2017-09-22T10:48:41.391Z,99.99
2017-09-22T10:49:50.239Z,99.99
2017-09-22T10:50:59.089Z,99.99
2017-09-22T10:52:08.138Z,99.99
2017-09-22T10:53:16.990Z,99.99
2017-09-22T10:54:25.838Z,99.99
2017-09-22T10:55:34.689Z,99.99
2017-09-22T10:56:43.539Z,99.99
2017-09-22T10:57:52.440Z,99.99
2017-09-22T10:59:01.289Z,99.99
2017-09-22T11:00:10.140Z,99.99
2017-09-22T11:01:18.988Z,99.99
2017-09-22T11:02:27.838Z,99.99
2017-09-22T11:03:36.785Z,99.99
2017-09-22T11:04:45.635Z,99.99
2017-09-22T11:05:54.503Z,99.99
2017-09-22T11:07:03.331Z,99.99
2017-09-22T11:08:12.182Z,99.99
2017-09-22T11:09:21.181Z,99.99
2017-09-22T11:10:30.029Z,99.99
2017-09-22T11:11:38.879Z,99.99
2017-09-22T11:12:47.729Z,99.99
2017-09-22T11:13:56.578Z,99.99
2017-09-22T11:15:05.577Z,99.99
2017-09-22T11:16:14.426Z,99.99
2017-09-22T11:17:23.273Z,99.99
2017-09-22T11:18:32.124Z,99.99
2017-09-22T11:19:40.976Z,99.99
2017-09-22T11:20:49.869Z,99.99
2017-09-22T11:21:58.717Z,99.99
2017-09-22T11:23:07.568Z,99.99
2017-09-22T11:24:16.415Z,99.99
2017-09-22T11:25:25.264Z,99.99
2017-09-22T11:26:34.265Z,99.99
2017-09-22T11:27:43.115Z,99.99
2017-09-22T11:28:51.963Z,99.99
2017-09-22T11:30:00.813Z,99.99
2017-09-22T11:31:09.663Z,99.99
2017-09-22T11:32:18.565Z,99.99
2017-09-22T11:33:27.414Z,99.99
2017-09-22T11:34:36.264Z,99.99
2017-09-22T11:35:45.115Z,99.99
2017-09-22T11:36:53.963Z,99.99
2017-09-22T11:38:03.013Z,99.99
2017-09-22T11:39:11.862Z,99.99
2017-09-22T11:40:20.710Z,99.99
2017-09-22T11:41:29.557Z,99.99
2017-09-22T11:42:38.407Z,99.99
2017-09-22T11:43:47.907Z,99.99
2017-09-22T11:44:56.756Z,99.99
2017-09-22T11:46:05.605Z,99.99
2017-09-22T11:47:14.789Z,99.99
2017-09-22T11:48:23.639Z,99.99
2017-09-22T11:49:32.741Z,99.99
2017-09-22T11:50:41.596Z,99.99
2017-09-22T11:51:50.776Z,99.99
2017-09-22T11:52:59.625Z,99.99
2017-09-22T11:54:08.475Z,99.99
2017-09-22T11:55:17.375Z,99.99
2017-09-22T11:56:26.226Z,99.99
2017-09-22T11:57:35.080Z,99.99
2017-09-22T11:58:43.937Z,99.99
2017-09-22T11:59:52.795Z,99.99
2017-09-22T12:01:01.652Z,99.99
2017-09-22T12:02:10.506Z,99.99
2017-09-22T12:03:19.360Z,99.99
2017-09-22T12:04:28.212Z,99.99
2017-09-22T12:05:37.062Z,99.99
2017-09-22T12:06:45.918Z,99.99
2017-09-22T12:07:54.768Z,99.99
2017-09-22T12:09:03.622Z,99.99
2017-09-22T12:10:12.471Z,99.99
2017-09-22T12:11:21.320Z,99.99
2017-09-22T12:12:30.171Z,99.99
2017-09-22T12:13:39.031Z,99.99
2017-09-22T12:14:48.234Z,99.99
2017-09-22T12:15:57.081Z,99.99
2017-09-22T12:17:05.931Z,99.99
2017-09-22T12:18:15.112Z,99.99
2017-09-22T12:19:23.965Z,99.99
2017-09-22T12:20:32.818Z,99.99
2017-09-22T12:21:41.773Z,99.99
2017-09-22T12:22:50.637Z,99.99
2017-09-22T12:23:59.497Z,99.99
2017-09-22T12:25:08.697Z,99.99
2017-09-22T12:26:17.560Z,99.99
2017-09-22T12:27:26.568Z,99.99
2017-09-22T12:28:35.419Z,99.99
2017-09-22T12:29:44.268Z,99.99
2017-09-22T12:30:53.116Z,99.99
2017-09-22T12:32:02.005Z,99.99
2017-09-22T12:33:10.856Z,99.99
2017-09-22T12:34:19.706Z,99.99
2017-09-22T12:35:28.557Z,99.99
2017-09-22T12:36:37.406Z,99.99
2017-09-22T12:37:46.257Z,99.99
2017-09-22T12:38:55.267Z,99.99
2017-09-22T12:40:04.116Z,99.99
2017-09-22T12:41:12.967Z,99.99
2017-09-22T12:42:22.153Z,99.99
2017-09-22T12:43:31.006Z,99.99
2017-09-22T12:44:39.905Z,99.99
2017-09-22T12:45:48.766Z,99.99
2017-09-22T12:46:57.781Z,99.99
2017-09-22T12:48:06.632Z,99.99
2017-09-22T12:49:15.486Z,99.99
2017-09-22T12:50:24.587Z,99.99
2017-09-22T12:51:33.444Z,99.99
2017-09-22T12:52:42.631Z,99.99
2017-09-22T12:53:51.482Z,99.99
2017-09-22T12:55:00.331Z,99.54
2017-09-22T12:56:09.283Z,97.71
2017-09-22T12:57:18.135Z,98.1
2017-09-22T12:58:26.987Z,98.77
2017-09-22T12:59:35.839Z,99.15
2017-09-22T13:00:44.692Z,98.48
2017-09-22T13:01:53.661Z,99.54
2017-09-22T13:03:02.511Z,98.82
2017-09-22T13:04:11.363Z,99.3
2017-09-22T13:05:20.223Z,99.99
2017-09-22T13:06:29.072Z,98.72
2017-09-22T13:07:38.520Z,99.99
2017-09-22T13:08:47.660Z,99.49
2017-09-22T13:09:56.511Z,99.87
2017-09-22T13:11:05.374Z,99.3
2017-09-22T13:12:14.209Z,99.99
2017-09-22T13:13:23.161Z,99.99
2017-09-22T13:14:32.341Z,99.99
2017-09-22T13:15:41.192Z,99.99
2017-09-22T13:16:50.049Z,99.99
2017-09-22T13:17:58.959Z,98.91
2017-09-22T13:19:08.365Z,98.63
2017-09-22T13:20:17.222Z,99.58
2017-09-22T13:21:26.069Z,99.78
2017-09-22T13:22:34.921Z,99.99
2017-09-22T13:23:43.771Z,99.99
2017-09-22T13:24:52.740Z,99.99
2017-09-22T13:26:01.606Z,99.99
2017-09-22T13:27:10.467Z,99.99
2017-09-22T13:28:19.348Z,99.99
2017-09-22T13:29:28.536Z,99.99
2017-09-22T13:30:37.437Z,99.99
2017-09-22T13:31:46.291Z,99.68
2017-09-22T13:32:55.617Z,99.73
2017-09-22T13:34:04.479Z,99.83
2017-09-22T13:35:13.329Z,99.99
2017-09-22T13:36:22.434Z,99.58
2017-09-22T13:37:31.285Z,99.49
2017-09-22T13:38:40.136Z,99.58
2017-09-22T13:39:48.988Z,98.43
2017-09-22T13:40:57.836Z,98.24
2017-09-22T13:42:06.936Z,98.53
2017-09-22T13:43:15.786Z,98.82
2017-09-22T13:44:24.639Z,99.4
2017-09-22T13:45:33.817Z,99.68
2017-09-22T13:46:42.670Z,99.99
2017-09-22T13:47:51.680Z,99.99
2017-09-22T13:49:00.536Z,99.01
2017-09-22T13:50:09.392Z,99.99
2017-09-22T13:51:18.244Z,99.99
2017-09-22T13:52:27.116Z,99.99
2017-09-22T13:53:36.113Z,98.63
2017-09-22T13:54:44.998Z,99.49
2017-09-22T13:55:53.868Z,99.99
2017-09-22T13:57:02.717Z,99.99
2017-09-22T13:58:11.571Z,99.3
2017-09-22T13:59:20.670Z,98.43
2017-09-22T14:00:29.518Z,99.35
2017-09-22T14:01:38.710Z,99.49
2017-09-22T14:02:47.619Z,99.49
2017-09-22T14:03:56.467Z,99.01
2017-09-22T14:05:05.718Z,99.99
2017-09-22T14:06:14.584Z,99.68
2017-09-22T14:07:23.435Z,99.49
2017-09-22T14:08:32.283Z,99.68
2017-09-22T14:09:41.131Z,99.68
2017-09-22T14:10:49.981Z,99.99
2017-09-22T14:11:58.832Z,99.99
2017-09-22T14:13:07.677Z,99.99
2017-09-22T14:14:16.538Z,99.99
2017-09-22T14:15:25.387Z,99.99
2017-09-22T14:16:34.434Z,99.99
2017-09-22T14:17:43.284Z,99.99
2017-09-22T14:18:52.131Z,99.68
2017-09-22T14:20:00.983Z,99.99
2017-09-22T14:21:09.847Z,99.99
2017-09-22T14:22:18.944Z,99.99
2017-09-22T14:23:27.789Z,99.99
2017-09-22T14:24:36.637Z,99.99
2017-09-22T14:25:45.483Z,99.99
2017-09-22T14:26:54.335Z,99.99
2017-09-22T14:28:03.376Z,99.99
2017-09-22T14:29:12.224Z,99.99
2017-09-22T14:30:21.078Z,99.99
2017-09-22T14:31:29.923Z,99.99
2017-09-22T14:32:38.773Z,99.99
2017-09-22T14:33:47.923Z,99.99
2017-09-22T14:34:56.778Z,99.99
2017-09-22T14:36:05.627Z,99.99
2017-09-22T14:37:14.476Z,99.99
2017-09-22T14:38:23.661Z,99.99
2017-09-22T14:39:32.662Z,99.99
2017-09-22T14:40:41.509Z,99.99
2017-09-22T14:41:50.356Z,99.99
2017-09-22T14:42:59.204Z,99.99
2017-09-22T14:44:08.049Z,99.99
2017-09-22T14:45:16.897Z,99.99
2017-09-22T14:46:25.744Z,99.99
2017-09-22T14:47:34.591Z,99.99